Airfield :
LOGIN :

Register | Disclaimer

   EN    FR    IT 

 










Legend :    VFR   Marginal VFR   IFR   Intensive IFR   Very Intensive IFR
Visi :
Ceiling :
>= 8 km
>= 3000ft
5 to 8 km
1000 to 3000 ft
1500m to 5 km
500 to 1000 ft
800 to 1500m
200 to 500 ft
< 800m
< 200 ft
Symbols :   Thunderstorms  Fog  Heavy snow  Heavy precipitations  Wind > 20 kt
SIGMETs :     Misc.  Thunderstorms  Icing  Turbulence  Mountain Waves  Volcanic Ashes






- Airport Elevation : 1966 ft
- IATA code : SGE


EDGS - Siegerland

CURRENT METAR :
  • 291150Z 25013KT 220V280 4000 -SHSN FEW005 OVC011 01/M01 Q1005

EXPIRED METARs :
  • 291120Z 24015KT 9999 SCT011 BKN015 01/M01 Q1005
  • 291050Z 25013KT 9999 FEW007 BKN016 01/M01 Q1005
  • 291020Z 25016KT 9000 -SHSN FEW011 SCT018 BKN033 01/M01 Q1005
  • 290950Z 25015KT 9999 -SHSN SCT015 BKN028 00/M01 Q1004
  • 290920Z 25015KT 9999 BKN025 01/M02 Q1004

TAF TAF EDGS
Valid from the 29 at 12:00 until the 29 at 21:00 UTC


291100Z 2912/2921 26015G25KT 9999 SCT007 BKN015
TEMPO 2912/2918 4000 -SHSN BKN007TCU



MET'MAP, your aeronautical weather chart ! - Copyright ORBIFLY December 2007 - Disclaimer

ORBIFLY MET'MAP TEAM :

Programming & Development : Alexandra Zaïnal
Concept & original design : Baudouin d'Aumeries
Assistance for programming : Marc-Olivier Méhu
Technical & hardware support : Manuel Goepfert

Contact : metmap@orbifly.com




SOURCES & CREDITS :

   NOAA